This is the latest recevied weather packets stored in our database for station/object 9W2CEW-1. If no packets are shown the sender has not sent any weather packets the latest 1 day(s).
| Time | Temp. | Humidity | Pressure | Rain* | Wind** | Luminosity | Snow |
|---|---|---|---|---|---|---|---|
| 1778096955 | 32.22° C | 68% | 1001.5 hPa | - | - | - | - |
| 1778090654 | 32.78° C | 64% | 1002.1 hPa | - | - | - | - |
| 1778088854 | 32.22° C | 66% | 1002.6 hPa | - | - | - | - |
| 1778087954 | 32.22° C | 66% | 1002.9 hPa | - | - | - | - |
| 1778081653 | 33.33° C | 63% | 1004.2 hPa | - | - | - | - |
| 1778079853 | 32.78° C | 62% | 1004.1 hPa | - | - | - | - |
| 1778078953 | 32.22° C | 65% | 1004 hPa | - | - | - | - |
| 1778078053 | 31.67° C | 67% | 1003.7 hPa | - | - | - | - |
| 1778075387 | 33.33° C | 63% | 1003.3 hPa | - | - | - | - |
| 1778074454 | 32.22° C | 66% | 1003.1 hPa | - | - | - | - |
| 1778073556 | 32.78° C | 66% | 1002.8 hPa | - | - | - | - |
| 1778072654 | 32.22° C | 67% | 1002.2 hPa | - | - | - | - |
| 1778070854 | 32.22° C | 67% | 1001.7 hPa | - | - | - | - |
| 1778069954 | 32.22° C | 66% | 1001.5 hPa | - | - | - | - |
| 1778067837 | 32.22° C | 70% | 1001.6 hPa | - | - | - | - |
| 1778065615 | 33.33° C | 66% | 1000.8 hPa | - | - | - | - |
| 1778065453 | 32.22° C | 70% | 1001.6 hPa | - | - | - | - |
| 1778063659 | 33.33° C | 66% | 1000.8 hPa | - | - | - | - |
| 1778063196 | 32.22° C | 69% | 1000.7 hPa | - | - | - | - |
| 1778062753 | 31.67° C | 73% | 1000.6 hPa | - | - | - | - |
| 1778061853 | 32.22° C | 69% | 1000.7 hPa | - | - | - | - |
| 1778060959 | 31.67° C | 73% | 1000.9 hPa | - | - | - | - |
| 1778060055 | 32.22° C | 73% | 1000.9 hPa | - | - | - | - |
| 1778054654 | 28.33° C | 82% | 1000.4 hPa | - | - | - | - |
| 1778053793 | 28.33° C | 81% | 1000.4 hPa | - | - | - | - |
* Rain since midnight (hover to see other rain measurements)
** Current wind speed in m/s (hover to see current wind gust speed)